Time;durP1;ratioP1;P1;durP2;ratioP2;P2;SDS_P1;SDS_P2;PMS_P1;PMS_P2;Temp;Humidity;BMP_temperature;BMP_pressure;BME280_temperature;BME280_humidity;BME280_pressure;Samples;Min_cycle;Max_cycle;Signal;HPM_P1;HPM_P2
2020/12/30 00:01:23;;;;;;;10.70;6.97;;;;;;;;;;5053425;28;20401;-48
2020/12/30 00:03:48;;;;;;;10.23;7.30;;;;;;;;;;5053454;28;20423;-49
2020/12/30 00:06:14;;;;;;;10.00;7.50;;;;;;;;;;5053616;28;20225;-49
2020/12/30 00:08:40;;;;;;;7.60;6.60;;;;;;;;;;5053615;28;20402;-49
2020/12/30 00:11:06;;;;;;;11.93;7.73;;;;;;;;;;5053213;28;20164;-49
2020/12/30 00:13:32;;;;;;;9.77;7.60;;;;;;;;;;5051086;28;20449;-49
2020/12/30 00:15:58;;;;;;;12.23;7.10;;;;;;;;;;5033386;28;20487;-49
2020/12/30 00:18:24;;;;;;;11.73;7.57;;;;;;;;;;5033477;28;20928;-50
2020/12/30 00:20:50;;;;;;;10.63;7.75;;;;;;;;;;5033314;28;20935;-49
2020/12/30 00:23:16;;;;;;;16.83;7.90;;;;;;;;;;5033115;28;20191;-50
2020/12/30 00:25:42;;;;;;;15.05;8.25;;;;;;;;;;5033220;28;20204;-50
2020/12/30 00:28:08;;;;;;;9.30;7.87;;;;;;;;;;5051186;28;20217;-50
2020/12/30 00:30:34;;;;;;;9.60;7.63;;;;;;;;;;5053188;28;20402;-49
2020/12/30 00:33:00;;;;;;;11.23;7.40;;;;;;;;;;5052662;28;20938;-49
2020/12/30 00:35:26;;;;;;;9.83;7.73;;;;;;;;;;5052430;28;20478;-49
2020/12/30 00:37:52;;;;;;;16.60;8.90;;;;;;;;;;5052848;28;20459;-48
2020/12/30 00:40:18;;;;;;;13.67;8.30;;;;;;;;;;5053008;28;20402;-49
2020/12/30 00:42:44;;;;;;;13.40;8.63;;;;;;;;;;5052817;28;20437;-51
2020/12/30 00:45:10;;;;;;;13.50;7.93;;;;;;;;;;5052825;28;20402;-50
2020/12/30 00:47:36;;;;;;;15.57;8.20;;;;;;;;;;5052729;28;20414;-50
2020/12/30 00:50:03;;;;;;;10.40;8.43;;;;;;;;;;5052830;28;20168;-50
2020/12/30 00:52:29;;;;;;;10.48;8.20;;;;;;;;;;5052493;28;20195;-49
2020/12/30 00:54:55;;;;;;;10.40;7.90;;;;;;;;;;5052609;28;20176;-49
2020/12/30 00:57:21;;;;;;;12.77;7.50;;;;;;;;;;5043688;28;20462;-49
2020/12/30 00:59:47;;;;;;;8.90;7.30;;;;;;;;;;5032602;28;20410;-50
2020/12/30 01:02:13;;;;;;;18.13;9.03;;;;;;;;;;5032324;28;20227;-49
2020/12/30 01:04:39;;;;;;;14.10;8.40;;;;;;;;;;5032470;28;20410;-49
2020/12/30 01:07:05;;;;;;;10.17;7.30;;;;;;;;;;5032553;28;20417;-49
2020/12/30 01:09:31;;;;;;;11.13;7.28;;;;;;;;;;5032417;28;20754;-50
2020/12/30 01:12:05;;;;;;;12.43;7.80;;;;;;;;;;5032120;28;20177;-48
2020/12/30 01:14:31;;;;;;;14.02;7.70;;;;;;;;;;5032499;28;20433;-50
2020/12/30 01:16:57;;;;;;;11.95;8.55;;;;;;;;;;5032191;28;20185;-48
2020/12/30 01:19:23;;;;;;;11.35;8.02;;;;;;;;;;5032342;28;20207;-50
2020/12/30 01:21:49;;;;;;;13.30;8.43;;;;;;;;;;5031933;28;20511;-50
2020/12/30 01:24:15;;;;;;;11.40;7.53;;;;;;;;;;5032213;28;20674;-50
2020/12/30 01:26:42;;;;;;;12.27;8.55;;;;;;;;;;5032106;28;20169;-50
2020/12/30 01:29:08;;;;;;;12.20;7.70;;;;;;;;;;5032042;28;20177;-50
2020/12/30 01:31:35;;;;;;;13.93;8.07;;;;;;;;;;5031733;28;20259;-49
2020/12/30 01:34:01;;;;;;;12.55;8.63;;;;;;;;;;5032006;28;20187;-49
2020/12/30 01:36:27;;;;;;;10.02;8.20;;;;;;;;;;5031897;28;20561;-49
2020/12/30 01:38:53;;;;;;;12.60;9.17;;;;;;;;;;5031929;28;20173;-49
2020/12/30 01:41:20;;;;;;;12.68;8.75;;;;;;;;;;5031691;28;20912;-49
2020/12/30 01:44:04;;;;;;;8.93;7.47;;;;;;;;;;5031826;28;20284;-50
2020/12/30 01:46:34;;;;;;;12.45;8.82;;;;;;;;;;5031440;28;20221;-51
2020/12/30 01:49:00;;;;;;;14.02;8.60;;;;;;;;;;5031589;28;20164;-50
2020/12/30 01:51:27;;;;;;;14.63;7.63;;;;;;;;;;5031786;28;20542;-50
2020/12/30 01:53:53;;;;;;;17.35;8.95;;;;;;;;;;5031785;28;20184;-49
2020/12/30 01:56:20;;;;;;;12.07;8.30;;;;;;;;;;5032776;28;20727;-50
2020/12/30 01:58:46;;;;;;;15.50;10.20;;;;;;;;;;5051905;28;20437;-49
2020/12/30 02:01:12;;;;;;;12.90;8.53;;;;;;;;;;5051405;28;20195;-49
2020/12/30 02:03:39;;;;;;;14.07;8.93;;;;;;;;;;5051070;28;20418;-49
2020/12/30 02:06:05;;;;;;;15.85;9.60;;;;;;;;;;5050562;28;20870;-48
2020/12/30 02:08:32;;;;;;;14.27;9.40;;;;;;;;;;5051501;28;20163;-48
2020/12/30 02:10:58;;;;;;;10.23;8.05;;;;;;;;;;5051101;28;20396;-48
2020/12/30 02:13:24;;;;;;;13.52;7.82;;;;;;;;;;5051082;28;20186;-49
2020/12/30 02:15:50;;;;;;;11.37;9.23;;;;;;;;;;5051109;28;20160;-50
2020/12/30 02:18:16;;;;;;;16.03;8.20;;;;;;;;;;5051024;28;20954;-50
2020/12/30 02:20:42;;;;;;;17.20;10.27;;;;;;;;;;5051150;28;20809;-49
2020/12/30 02:23:09;;;;;;;14.10;10.23;;;;;;;;;;5050650;28;20465;-49
2020/12/30 02:25:36;;;;;;;12.98;8.50;;;;;;;;;;5051029;28;20435;-51
2020/12/30 02:28:02;;;;;;;13.38;9.65;;;;;;;;;;5038075;28;20172;-48
2020/12/30 02:30:28;;;;;;;15.77;10.70;;;;;;;;;;5031126;28;20179;-48
2020/12/30 02:32:54;;;;;;;17.27;9.30;;;;;;;;;;5030588;28;20195;-49
2020/12/30 02:35:24;;;;;;;13.57;8.97;;;;;;;;;;5030985;28;20452;-47
2020/12/30 02:37:51;;;;;;;18.42;9.98;;;;;;;;;;5030768;28;20500;-48
2020/12/30 02:40:17;;;;;;;13.13;10.32;;;;;;;;;;5030917;28;20733;-51
2020/12/30 02:42:43;;;;;;;15.98;9.57;;;;;;;;;;5030576;28;20197;-50
2020/12/30 02:45:09;;;;;;;16.00;11.07;;;;;;;;;;5030622;28;20229;-51
2020/12/30 02:47:35;;;;;;;16.52;11.38;;;;;;;;;;5030807;28;20435;-49
2020/12/30 02:50:02;;;;;;;14.63;10.90;;;;;;;;;;5030738;28;20582;-48
2020/12/30 02:52:28;;;;;;;16.92;11.02;;;;;;;;;;5030500;28;20187;-48
2020/12/30 02:54:54;;;;;;;16.65;10.30;;;;;;;;;;5030667;28;20688;-50
2020/12/30 02:57:20;;;;;;;17.20;10.40;;;;;;;;;;5030462;28;20208;-50
2020/12/30 02:59:46;;;;;;;15.23;10.23;;;;;;;;;;5030321;28;20411;-48
2020/12/30 03:02:13;;;;;;;18.13;10.90;;;;;;;;;;5030488;28;20177;-49
2020/12/30 03:04:39;;;;;;;17.65;10.68;;;;;;;;;;5030673;28;20172;-49
2020/12/30 03:07:05;;;;;;;19.50;11.60;;;;;;;;;;5030477;28;20176;-48
2020/12/30 03:09:31;;;;;;;17.30;11.45;;;;;;;;;;5030636;28;20176;-49
2020/12/30 03:11:57;;;;;;;19.88;12.38;;;;;;;;;;5030156;28;20163;-47
2020/12/30 03:14:23;;;;;;;18.85;10.82;;;;;;;;;;5030624;28;20175;-47
2020/12/30 03:16:49;;;;;;;17.60;10.50;;;;;;;;;;5030240;28;20207;-48
2020/12/30 03:19:15;;;;;;;16.87;11.00;;;;;;;;;;5030499;28;20414;-48
2020/12/30 03:21:41;;;;;;;18.60;12.25;;;;;;;;;;5030154;28;20390;-48
2020/12/30 03:24:07;;;;;;;17.93;12.30;;;;;;;;;;5030395;28;20554;-49
2020/12/30 03:26:35;;;;;;;16.58;10.57;;;;;;;;;;5030536;28;20453;-50
2020/12/30 03:29:01;;;;;;;25.73;12.68;;;;;;;;;;5030361;28;20227;-49
2020/12/30 03:31:32;;;;;;;22.67;12.15;;;;;;;;;;5030235;28;20165;-48
2020/12/30 03:34:00;;;;;;;16.77;12.05;;;;;;;;;;5030228;28;20553;-48
2020/12/30 03:36:26;;;;;;;17.42;12.05;;;;;;;;;;5030238;28;20734;-47
2020/12/30 03:38:52;;;;;;;22.25;13.38;;;;;;;;;;5030312;28;20641;-47
2020/12/30 03:41:18;;;;;;;17.93;11.03;;;;;;;;;;5030217;28;20168;-47
2020/12/30 03:43:44;;;;;;;20.40;13.57;;;;;;;;;;5030262;28;20426;-49
2020/12/30 03:46:10;;;;;;;19.60;13.05;;;;;;;;;;5030249;28;20418;-48
2020/12/30 03:48:36;;;;;;;21.92;12.35;;;;;;;;;;5030368;28;20200;-47
2020/12/30 03:51:02;;;;;;;23.03;11.90;;;;;;;;;;5030180;28;20197;-47
2020/12/30 03:53:28;;;;;;;17.30;12.15;;;;;;;;;;5028826;28;20514;-47
2020/12/30 03:55:54;;;;;;;22.00;13.80;;;;;;;;;;5030207;28;20715;-47
2020/12/30 03:58:21;;;;;;;18.80;12.07;;;;;;;;;;5029765;28;20462;-47
2020/12/30 04:00:47;;;;;;;27.42;13.07;;;;;;;;;;5038059;28;20433;-47
2020/12/30 04:03:12;;;;;;;22.73;12.57;;;;;;;;;;5049916;28;20606;-47
2020/12/30 04:05:38;;;;;;;24.03;14.10;;;;;;;;;;5050038;28;20402;-49
2020/12/30 04:08:04;;;;;;;23.00;13.43;;;;;;;;;;5050244;28;20405;-48
2020/12/30 04:10:31;;;;;;;22.77;12.97;;;;;;;;;;5051308;28;20408;-49
2020/12/30 04:12:57;;;;;;;20.30;13.30;;;;;;;;;;5053502;28;20917;-47
2020/12/30 04:15:23;;;;;;;21.25;14.10;;;;;;;;;;5053809;28;20257;-48
2020/12/30 04:17:49;;;;;;;22.03;13.37;;;;;;;;;;5053376;28;20313;-47
2020/12/30 04:20:15;;;;;;;21.10;12.93;;;;;;;;;;5053416;28;20410;-49
2020/12/30 04:22:41;;;;;;;20.50;13.10;;;;;;;;;;5052934;28;20926;-50
2020/12/30 04:25:07;;;;;;;24.45;13.55;;;;;;;;;;5053509;28;20402;-51
2020/12/30 04:27:32;;;;;;;28.17;14.10;;;;;;;;;;5048460;28;20698;-50
2020/12/30 04:29:58;;;;;;;22.20;14.37;;;;;;;;;;5033235;28;20494;-50
2020/12/30 04:32:24;;;;;;;28.60;14.90;;;;;;;;;;5033046;28;20427;-50
2020/12/30 04:34:50;;;;;;;27.88;16.38;;;;;;;;;;5033108;28;20495;-47
2020/12/30 04:37:16;;;;;;;24.80;14.03;;;;;;;;;;5033183;28;20271;-47
2020/12/30 04:39:42;;;;;;;29.37;13.60;;;;;;;;;;5033060;28;20901;-47
2020/12/30 04:42:09;;;;;;;22.80;14.37;;;;;;;;;;5032851;28;20406;-48
2020/12/30 04:44:38;;;;;;;26.10;14.65;;;;;;;;;;5032935;28;20399;-50
2020/12/30 04:47:04;;;;;;;27.15;14.75;;;;;;;;;;5032941;28;20186;-47
2020/12/30 04:49:30;;;;;;;26.55;15.30;;;;;;;;;;5032902;28;20207;-48
2020/12/30 04:51:57;;;;;;;23.63;14.05;;;;;;;;;;5032524;28;20164;-48
2020/12/30 04:54:23;;;;;;;26.90;15.95;;;;;;;;;;5032925;28;20806;-48
2020/12/30 04:57:02;;;;;;;23.80;13.52;;;;;;;;;;5032810;28;20253;-50
2020/12/30 04:59:29;;;;;;;26.75;15.70;;;;;;;;;;5032691;28;20187;-48
2020/12/30 05:01:54;;;;;;;29.00;15.45;;;;;;;;;;5032299;28;20214;-48
2020/12/30 05:04:21;;;;;;;23.80;12.90;;;;;;;;;;5032591;28;20187;-48
2020/12/30 05:06:50;;;;;;;22.05;14.02;;;;;;;;;;5032503;28;20544;-47
2020/12/30 05:09:20;;;;;;;24.33;14.38;;;;;;;;;;5032551;28;20165;-50
2020/12/30 05:11:46;;;;;;;25.70;14.88;;;;;;;;;;5032224;28;20176;-48
2020/12/30 05:14:12;;;;;;;22.00;13.63;;;;;;;;;;5032337;28;20200;-50
2020/12/30 05:16:38;;;;;;;24.43;14.13;;;;;;;;;;5032302;28;20462;-50
2020/12/30 05:19:04;;;;;;;23.53;15.17;;;;;;;;;;5032402;28;20414;-50
2020/12/30 05:21:31;;;;;;;24.95;14.63;;;;;;;;;;5032033;28;20974;-47
2020/12/30 05:23:57;;;;;;;23.30;13.23;;;;;;;;;;5032027;28;20258;-47
2020/12/30 05:26:23;;;;;;;23.20;13.73;;;;;;;;;;5032216;28;20558;-48
2020/12/30 05:28:50;;;;;;;26.20;14.68;;;;;;;;;;5032022;28;20221;-48
2020/12/30 05:31:16;;;;;;;23.30;13.98;;;;;;;;;;5031928;28;20593;-50
2020/12/30 05:33:42;;;;;;;27.00;16.40;;;;;;;;;;5031937;28;20188;-50
2020/12/30 05:36:08;;;;;;;25.87;15.17;;;;;;;;;;5032023;28;20771;-48
2020/12/30 05:38:34;;;;;;;27.02;15.88;;;;;;;;;;5032005;28;20459;-50
2020/12/30 05:41:01;;;;;;;21.13;13.73;;;;;;;;;;5031830;28;20187;-50
2020/12/30 05:43:27;;;;;;;23.38;14.43;;;;;;;;;;5031450;28;20423;-48
2020/12/30 05:45:55;;;;;;;23.95;14.98;;;;;;;;;;5031792;28;20187;-48
2020/12/30 05:48:22;;;;;;;26.80;15.38;;;;;;;;;;5031827;28;20616;-48
2020/12/30 05:50:49;;;;;;;26.15;14.35;;;;;;;;;;5031695;28;20652;-50
2020/12/30 05:53:15;;;;;;;23.20;16.23;;;;;;;;;;5031392;28;20199;-50
2020/12/30 05:55:41;;;;;;;28.35;15.20;;;;;;;;;;5031592;28;20194;-48
2020/12/30 05:58:08;;;;;;;20.67;14.52;;;;;;;;;;5044428;28;20202;-47
2020/12/30 06:00:34;;;;;;;24.42;14.85;;;;;;;;;;5033098;28;20273;-48
2020/12/30 06:03:00;;;;;;;27.50;15.57;;;;;;;;;;5031189;28;20683;-47
2020/12/30 06:05:28;;;;;;;27.07;14.80;;;;;;;;;;5031514;28;20402;-47
2020/12/30 06:07:55;;;;;;;28.38;15.18;;;;;;;;;;5031402;28;20402;-47
2020/12/30 06:10:22;;;;;;;23.35;14.70;;;;;;;;;;5031459;28;20235;-49
2020/12/30 06:12:49;;;;;;;23.05;14.30;;;;;;;;;;5030985;28;20225;-47
2020/12/30 06:15:16;;;;;;;26.95;15.93;;;;;;;;;;5031519;28;20183;-50
2020/12/30 06:17:49;;;;;;;29.08;16.77;;;;;;;;;;5031164;28;20689;-47
2020/12/30 06:20:20;;;;;;;28.85;15.35;;;;;;;;;;5031361;28;20168;-49
2020/12/30 06:22:51;;;;;;;24.92;14.77;;;;;;;;;;5031025;28;20276;-47
2020/12/30 06:25:18;;;;;;;27.70;15.60;;;;;;;;;;5031118;28;20177;-47
2020/12/30 06:27:48;;;;;;;26.65;15.48;;;;;;;;;;5031211;28;20187;-47
2020/12/30 06:30:15;;;;;;;27.05;15.90;;;;;;;;;;5030934;28;20191;-48
2020/12/30 06:32:41;;;;;;;23.50;14.27;;;;;;;;;;5030669;28;20196;-48
2020/12/30 06:35:07;;;;;;;23.60;14.33;;;;;;;;;;5030987;28;20175;-47
2020/12/30 06:37:34;;;;;;;26.10;15.10;;;;;;;;;;5030989;28;20438;-48
2020/12/30 06:40:18;;;;;;;26.48;15.52;;;;;;;;;;5031077;28;20411;-51
2020/12/30 06:42:45;;;;;;;20.45;13.57;;;;;;;;;;5030838;28;20213;-48
2020/12/30 06:45:15;;;;;;;26.17;14.10;;;;;;;;;;5030678;28;20172;-48
2020/12/30 06:47:57;;;;;;;22.20;14.38;;;;;;;;;;5031047;28;20184;-48
2020/12/30 06:50:23;;;;;;;27.67;15.20;;;;;;;;;;5030860;28;20366;-48
2020/12/30 06:52:49;;;;;;;27.77;15.50;;;;;;;;;;5030580;28;20192;-47
2020/12/30 06:55:15;;;;;;;24.50;13.93;;;;;;;;;;5030740;28;20658;-48
2020/12/30 06:57:44;;;;;;;25.60;14.00;;;;;;;;;;5041804;28;20463;-48
2020/12/30 07:00:29;;;;;;;22.23;14.93;;;;;;;;;;5050677;28;20402;-48
2020/12/30 07:03:11;;;;;;;27.92;15.23;;;;;;;;;;5050260;28;20191;-48
2020/12/30 07:05:37;;;;;;;23.73;14.43;;;;;;;;;;5050578;28;20207;-47
2020/12/30 07:08:03;;;;;;;25.13;15.37;;;;;;;;;;5049953;28;20183;-47
2020/12/30 07:10:29;;;;;;;27.47;15.37;;;;;;;;;;5050035;28;20415;-48
2020/12/30 07:12:55;;;;;;;22.05;14.15;;;;;;;;;;5049241;28;20434;-48
2020/12/30 07:15:27;;;;;;;25.75;14.95;;;;;;;;;;5049935;28;20545;-48
2020/12/30 07:17:56;;;;;;;22.02;14.20;;;;;;;;;;5049553;28;20199;-48
2020/12/30 07:20:23;;;;;;;34.15;13.70;;;;;;;;;;5049966;28;20214;-47
2020/12/30 07:22:49;;;;;;;24.35;14.40;;;;;;;;;;5049413;28;20192;-49
2020/12/30 07:25:16;;;;;;;23.73;14.20;;;;;;;;;;5049732;28;20255;-49
2020/12/30 07:27:43;;;;;;;22.42;13.25;;;;;;;;;;5039962;28;20437;-47
2020/12/30 07:30:09;;;;;;;26.90;14.75;;;;;;;;;;5028606;28;20172;-47
2020/12/30 07:32:35;;;;;;;24.23;14.05;;;;;;;;;;5029457;28;20200;-47
2020/12/30 07:35:01;;;;;;;25.83;16.02;;;;;;;;;;5029807;28;20637;-50
2020/12/30 07:37:27;;;;;;;26.17;15.10;;;;;;;;;;5029761;28;20553;-48
2020/12/30 07:39:54;;;;;;;28.17;16.25;;;;;;;;;;5028167;28;20182;-48
2020/12/30 07:42:21;;;;;;;24.55;14.45;;;;;;;;;;5029496;28;20209;-47
2020/12/30 07:44:48;;;;;;;20.88;13.57;;;;;;;;;;5029615;28;20184;-48
2020/12/30 07:47:14;;;;;;;24.40;15.70;;;;;;;;;;5033398;28;20195;-48
2020/12/30 07:49:40;;;;;;;26.83;14.75;;;;;;;;;;5033423;28;20167;-47
2020/12/30 07:52:07;;;;;;;18.05;13.32;;;;;;;;;;5033168;28;20169;-48
2020/12/30 07:54:33;;;;;;;26.40;14.90;;;;;;;;;;5033961;28;20170;-49
2020/12/30 07:57:09;;;;;;;25.88;14.30;;;;;;;;;;5035127;28;20673;-48
2020/12/30 07:59:38;;;;;;;25.63;14.88;;;;;;;;;;5033777;28;20181;-49
2020/12/30 08:02:05;;;;;;;26.60;13.95;;;;;;;;;;5033291;28;20175;-48
2020/12/30 08:04:32;;;;;;;25.63;15.25;;;;;;;;;;5034493;28;20526;-48
2020/12/30 08:06:59;;;;;;;24.85;15.18;;;;;;;;;;5053546;28;20657;-48
2020/12/30 08:09:25;;;;;;;22.65;14.60;;;;;;;;;;5053532;28;20541;-48
2020/12/30 08:11:55;;;;;;;25.23;14.45;;;;;;;;;;5053444;28;20174;-49
2020/12/30 08:14:23;;;;;;;21.40;13.90;;;;;;;;;;5053678;28;20582;-50
2020/12/30 08:16:57;;;;;;;25.23;14.13;;;;;;;;;;5053533;28;20221;-47
2020/12/30 08:19:30;;;;;;;22.88;13.82;;;;;;;;;;5053360;28;20649;-47
2020/12/30 08:22:04;;;;;;;23.38;14.00;;;;;;;;;;5053100;28;20602;-50
2020/12/30 08:24:30;;;;;;;23.08;14.25;;;;;;;;;;5053246;28;20215;-48
2020/12/30 08:26:56;;;;;;;28.38;15.63;;;;;;;;;;5047902;28;20669;-49
2020/12/30 08:29:22;;;;;;;27.50;14.35;;;;;;;;;;5033756;28;20797;-49
2020/12/30 08:31:53;;;;;;;21.98;14.10;;;;;;;;;;5033074;28;20198;-48
2020/12/30 08:34:22;;;;;;;21.42;11.85;;;;;;;;;;5033079;28;20201;-49
2020/12/30 08:36:52;;;;;;;20.00;13.35;;;;;;;;;;5033204;28;20256;-50
2020/12/30 08:39:19;;;;;;;22.60;12.90;;;;;;;;;;5033476;28;20185;-50
2020/12/30 08:41:52;;;;;;;23.98;13.88;;;;;;;;;;5032812;28;20174;-49
2020/12/30 08:44:19;;;;;;;21.92;11.68;;;;;;;;;;5033249;28;20196;-51
2020/12/30 08:46:49;;;;;;;18.70;12.25;;;;;;;;;;5032967;28;20194;-49
2020/12/30 08:49:19;;;;;;;20.55;12.45;;;;;;;;;;5033414;28;20178;-51
2020/12/30 08:51:45;;;;;;;22.15;14.98;;;;;;;;;;5032884;28;20185;-49
2020/12/30 08:54:15;;;;;;;19.48;11.98;;;;;;;;;;5033121;28;20194;-51
2020/12/30 08:56:44;;;;;;;21.38;13.68;;;;;;;;;;5039566;28;20688;-48
2020/12/30 08:59:20;;;;;;;18.95;12.25;;;;;;;;;;5052964;28;20165;-50
2020/12/30 09:01:46;;;;;;;19.58;13.70;;;;;;;;;;5052431;28;20166;-50
2020/12/30 09:04:12;;;;;;;25.00;12.80;;;;;;;;;;5052596;28;20199;-49
2020/12/30 09:06:38;;;;;;;23.63;14.15;;;;;;;;;;5052660;28;20400;-50
2020/12/30 09:09:08;;;;;;;20.00;12.43;;;;;;;;;;5052356;28;20169;-51
2020/12/30 09:11:35;;;;;;;19.73;13.00;;;;;;;;;;5052304;28;20256;-49
2020/12/30 09:14:12;;;;;;;25.90;13.63;;;;;;;;;;5052190;28;20181;-49
2020/12/30 09:16:50;;;;;;;24.13;12.32;;;;;;;;;;5052362;28;20181;-48
2020/12/30 09:19:19;;;;;;;21.80;13.43;;;;;;;;;;5052299;28;20173;-50
2020/12/30 09:21:45;;;;;;;21.08;13.20;;;;;;;;;;5052092;28;20220;-50
2020/12/30 09:24:12;;;;;;;19.97;11.60;;;;;;;;;;5051943;28;20185;-50
2020/12/30 09:26:38;;;;;;;18.23;11.63;;;;;;;;;;5048103;28;20499;-50
2020/12/30 09:29:04;;;;;;;20.43;13.37;;;;;;;;;;5032135;28;20599;-50
2020/12/30 09:31:30;;;;;;;20.07;12.80;;;;;;;;;;5031942;28;20399;-49
2020/12/30 09:33:56;;;;;;;21.90;12.33;;;;;;;;;;5032109;28;20420;-51
2020/12/30 09:36:22;;;;;;;18.10;11.80;;;;;;;;;;5031900;28;20402;-50
2020/12/30 09:38:55;;;;;;;19.57;12.57;;;;;;;;;;5031965;28;20405;-50
2020/12/30 09:41:21;;;;;;;18.85;12.95;;;;;;;;;;5031841;28;20413;-50
2020/12/30 09:43:47;;;;;;;19.47;12.53;;;;;;;;;;5031863;28;20193;-50
2020/12/30 09:46:20;;;;;;;19.83;11.90;;;;;;;;;;5031576;28;20513;-50
2020/12/30 09:48:46;;;;;;;24.48;14.55;;;;;;;;;;5031900;28;20176;-50
2020/12/30 09:51:15;;;;;;;22.98;13.15;;;;;;;;;;5031407;28;20173;-51
2020/12/30 09:53:41;;;;;;;19.60;12.50;;;;;;;;;;5031552;28;20194;-49
2020/12/30 09:56:12;;;;;;;19.77;12.30;;;;;;;;;;5031602;28;20170;-50
2020/12/30 09:58:38;;;;;;;24.85;12.82;;;;;;;;;;5031408;28;20199;-50
2020/12/30 10:01:04;;;;;;;21.13;13.83;;;;;;;;;;5035325;28;20187;-49
2020/12/30 10:03:30;;;;;;;19.13;11.80;;;;;;;;;;5050428;28;20422;-49
2020/12/30 10:05:56;;;;;;;23.63;14.30;;;;;;;;;;5049941;28;20932;-50
2020/12/30 10:08:22;;;;;;;20.80;12.60;;;;;;;;;;5050334;28;20923;-49
2020/12/30 10:10:49;;;;;;;23.33;12.70;;;;;;;;;;5051302;28;20511;-48
2020/12/30 10:13:15;;;;;;;21.30;13.10;;;;;;;;;;5050848;28;20421;-50
2020/12/30 10:15:41;;;;;;;22.53;12.53;;;;;;;;;;5051239;28;20223;-49
2020/12/30 10:18:07;;;;;;;27.27;14.20;;;;;;;;;;5051150;28;20472;-49
2020/12/30 10:20:33;;;;;;;18.83;12.43;;;;;;;;;;5050929;28;20961;-48
2020/12/30 10:22:59;;;;;;;21.33;13.10;;;;;;;;;;5035797;28;20433;-48
2020/12/30 10:25:25;;;;;;;25.53;13.27;;;;;;;;;;5048870;28;20452;-49
2020/12/30 10:27:51;;;;;;;26.20;16.73;;;;;;;;;;5045034;28;20432;-50
2020/12/30 10:30:17;;;;;;;23.20;15.00;;;;;;;;;;5030949;28;20185;-49
2020/12/30 10:32:43;;;;;;;24.73;14.33;;;;;;;;;;5030674;28;20417;-48
2020/12/30 10:35:10;;;;;;;24.97;15.63;;;;;;;;;;5030905;28;20426;-49
2020/12/30 10:37:36;;;;;;;26.65;14.50;;;;;;;;;;5030584;28;20455;-49
2020/12/30 10:40:03;;;;;;;24.65;14.95;;;;;;;;;;5030832;28;20169;-50
2020/12/30 10:42:29;;;;;;;23.63;14.05;;;;;;;;;;5030454;28;20658;-49
2020/12/30 10:44:55;;;;;;;22.77;14.80;;;;;;;;;;5030807;28;20179;-49
2020/12/30 10:47:21;;;;;;;27.90;14.27;;;;;;;;;;5031322;28;20912;-47
2020/12/30 10:49:47;;;;;;;26.90;14.57;;;;;;;;;;5031028;28;20797;-47
2020/12/30 10:52:13;;;;;;;24.70;14.40;;;;;;;;;;5030451;28;20445;-48
2020/12/30 10:54:42;;;;;;;24.73;14.10;;;;;;;;;;5031080;28;20413;-47
2020/12/30 10:57:08;;;;;;;29.30;15.00;;;;;;;;;;5030655;28;20463;-51
2020/12/30 10:59:34;;;;;;;26.30;16.07;;;;;;;;;;5030643;28;20539;-50
2020/12/30 11:02:01;;;;;;;26.40;14.57;;;;;;;;;;5030375;28;20487;-47
2020/12/30 11:04:27;;;;;;;27.60;14.50;;;;;;;;;;5030540;28;20426;-47
2020/12/30 11:06:53;;;;;;;25.83;15.70;;;;;;;;;;5030626;28;20642;-48
2020/12/30 11:09:19;;;;;;;24.00;14.83;;;;;;;;;;5030651;28;20444;-49
2020/12/30 11:11:48;;;;;;;26.03;14.90;;;;;;;;;;5030293;28;20413;-49
2020/12/30 11:14:14;;;;;;;30.05;14.27;;;;;;;;;;5030469;28;20424;-47
2020/12/30 11:16:40;;;;;;;30.03;16.83;;;;;;;;;;5030278;28;20177;-47
2020/12/30 11:19:06;;;;;;;28.50;14.97;;;;;;;;;;5031003;28;20407;-47
2020/12/30 11:21:32;;;;;;;31.17;16.97;;;;;;;;;;5034396;28;20396;-47
2020/12/30 11:23:58;;;;;;;27.20;14.97;;;;;;;;;;5034435;28;20420;-47
2020/12/30 11:26:24;;;;;;;25.50;15.65;;;;;;;;;;5034363;28;20405;-47
2020/12/30 11:28:50;;;;;;;28.40;16.87;;;;;;;;;;5034008;28;20177;-47
2020/12/30 11:31:16;;;;;;;28.40;15.33;;;;;;;;;;5034031;28;20508;-48
2020/12/30 11:33:42;;;;;;;25.70;15.75;;;;;;;;;;5034120;28;20443;-47
2020/12/30 11:36:08;;;;;;;25.10;14.47;;;;;;;;;;5034204;28;20240;-47
2020/12/30 11:38:34;;;;;;;26.17;14.60;;;;;;;;;;5033977;28;20463;-48
2020/12/30 11:41:00;;;;;;;29.15;15.95;;;;;;;;;;5034124;28;20642;-48
2020/12/30 11:43:28;;;;;;;28.30;14.57;;;;;;;;;;5033918;28;20235;-49
2020/12/30 11:45:54;;;;;;;23.75;13.98;;;;;;;;;;5033827;28;20414;-49
2020/12/30 11:48:20;;;;;;;23.67;14.73;;;;;;;;;;5034054;28;20640;-49
2020/12/30 11:50:46;;;;;;;27.80;14.75;;;;;;;;;;5033806;28;20512;-48
2020/12/30 11:53:12;;;;;;;30.50;18.10;;;;;;;;;;5033687;28;20197;-49
2020/12/30 11:55:38;;;;;;;32.27;14.10;;;;;;;;;;5033826;28;20399;-50
2020/12/30 11:58:04;;;;;;;26.97;17.30;;;;;;;;;;5033046;28;20453;-47
2020/12/30 12:00:32;;;;;;;26.33;14.68;;;;;;;;;;5033860;28;20401;-48
2020/12/30 12:02:58;;;;;;;22.05;14.05;;;;;;;;;;5033385;28;20260;-48
2020/12/30 12:05:24;;;;;;;30.60;14.77;;;;;;;;;;5040535;28;20830;-48
2020/12/30 12:07:50;;;;;;;28.33;17.27;;;;;;;;;;5052581;28;20780;-49
2020/12/30 12:10:16;;;;;;;22.40;14.77;;;;;;;;;;5053153;28;20412;-48
2020/12/30 12:12:42;;;;;;;22.60;14.70;;;;;;;;;;5053223;28;20435;-48
2020/12/30 12:15:08;;;;;;;27.83;16.00;;;;;;;;;;5053397;28;20949;-48
2020/12/30 12:17:35;;;;;;;26.95;16.45;;;;;;;;;;5053219;28;20447;-48
2020/12/30 12:20:00;;;;;;;31.17;15.00;;;;;;;;;;5053388;28;20257;-47
2020/12/30 12:22:26;;;;;;;22.83;14.63;;;;;;;;;;5052889;28;20236;-47
2020/12/30 12:24:53;;;;;;;20.10;14.27;;;;;;;;;;5053196;28;20408;-47
2020/12/30 12:27:19;;;;;;;29.45;15.77;;;;;;;;;;5050853;28;20971;-48
2020/12/30 12:29:47;;;;;;;22.85;16.02;;;;;;;;;;5052734;28;20270;-51
2020/12/30 12:32:20;;;;;;;23.23;15.10;;;;;;;;;;5050765;28;20604;-50
2020/12/30 12:34:47;;;;;;;23.33;14.95;;;;;;;;;;5052907;28;20202;-48
2020/12/30 12:37:14;;;;;;;26.63;14.18;;;;;;;;;;5053571;28;20228;-48
2020/12/30 12:39:41;;;;;;;23.75;13.68;;;;;;;;;;5053863;28;20171;-49
2020/12/30 12:42:07;;;;;;;24.63;13.35;;;;;;;;;;5052305;28;20166;-51
2020/12/30 12:44:33;;;;;;;25.17;14.75;;;;;;;;;;5052828;28;20174;-50
2020/12/30 12:47:00;;;;;;;24.10;14.13;;;;;;;;;;5051097;28;20197;-49
2020/12/30 12:49:26;;;;;;;23.90;12.88;;;;;;;;;;5052834;28;20435;-51
2020/12/30 12:51:53;;;;;;;20.88;12.88;;;;;;;;;;5052393;28;20179;-51
2020/12/30 12:54:19;;;;;;;26.02;15.07;;;;;;;;;;5052996;28;20200;-49
2020/12/30 12:56:45;;;;;;;20.58;13.45;;;;;;;;;;5052806;28;20548;-52
2020/12/30 12:59:12;;;;;;;22.38;13.88;;;;;;;;;;5034606;28;20170;-49
2020/12/30 13:01:38;;;;;;;23.80;14.55;;;;;;;;;;5032687;28;20172;-50
2020/12/30 13:04:04;;;;;;;22.48;12.73;;;;;;;;;;5032502;28;20193;-50
2020/12/30 13:06:30;;;;;;;22.00;13.05;;;;;;;;;;5032762;28;20585;-50
2020/12/30 13:08:56;;;;;;;20.90;10.80;;;;;;;;;;5032587;28;20592;-51
2020/12/30 13:11:23;;;;;;;19.00;12.48;;;;;;;;;;5032316;28;20657;-49
2020/12/30 13:13:49;;;;;;;20.52;12.23;;;;;;;;;;5032516;28;20191;-49
2020/12/30 13:16:15;;;;;;;17.77;11.43;;;;;;;;;;5032553;28;20256;-48
2020/12/30 13:18:41;;;;;;;20.77;12.90;;;;;;;;;;5032276;28;20209;-53
2020/12/30 13:21:07;;;;;;;23.53;14.20;;;;;;;;;;5032039;28;20559;-49
2020/12/30 13:23:33;;;;;;;27.33;14.33;;;;;;;;;;5032293;28;20418;-49
2020/12/30 13:25:59;;;;;;;19.73;14.07;;;;;;;;;;5032062;28;20401;-50
2020/12/30 13:28:25;;;;;;;25.33;13.43;;;;;;;;;;5031872;28;20948;-50
2020/12/30 13:30:51;;;;;;;23.75;14.25;;;;;;;;;;5032210;28;20462;-49
2020/12/30 13:33:17;;;;;;;21.90;13.25;;;;;;;;;;5031826;28;20198;-51
2020/12/30 13:35:47;;;;;;;22.65;13.07;;;;;;;;;;5032085;28;20666;-49
2020/12/30 13:38:13;;;;;;;19.55;12.48;;;;;;;;;;5031826;28;20194;-50
2020/12/30 13:40:39;;;;;;;20.17;12.40;;;;;;;;;;5031873;28;20178;-51
2020/12/30 13:43:05;;;;;;;24.10;14.00;;;;;;;;;;5031476;28;20192;-50
2020/12/30 13:45:32;;;;;;;23.70;14.60;;;;;;;;;;5031712;28;20406;-52
2020/12/30 13:47:58;;;;;;;25.13;14.57;;;;;;;;;;5031251;28;20420;-49
2020/12/30 13:50:24;;;;;;;21.42;14.73;;;;;;;;;;5030424;28;20179;-50
2020/12/30 13:52:50;;;;;;;25.25;14.45;;;;;;;;;;5031120;28;20193;-50
2020/12/30 13:55:16;;;;;;;26.50;17.27;;;;;;;;;;5031085;28;20174;-49
2020/12/30 13:57:42;;;;;;;24.40;14.70;;;;;;;;;;5038226;28;20477;-49
2020/12/30 14:00:08;;;;;;;26.10;14.43;;;;;;;;;;5050809;28;20467;-49
2020/12/30 14:02:34;;;;;;;23.88;14.05;;;;;;;;;;5050424;28;20474;-50
2020/12/30 14:05:00;;;;;;;22.60;13.20;;;;;;;;;;5048023;28;20174;-49
2020/12/30 14:07:29;;;;;;;17.70;12.52;;;;;;;;;;5041544;28;20398;-50
2020/12/30 14:09:56;;;;;;;18.42;11.43;;;;;;;;;;5030046;28;20265;-50
2020/12/30 14:12:21;;;;;;;20.83;12.00;;;;;;;;;;5030435;28;20656;-50
2020/12/30 14:14:47;;;;;;;23.20;13.00;;;;;;;;;;5031473;28;20423;-47
2020/12/30 14:17:14;;;;;;;23.27;12.43;;;;;;;;;;5030766;28;20531;-48